createdAt,value
2022-09-02T00:01:57.586Z,20.70
2022-09-02T00:04:26.145Z,27.33
2022-09-02T00:06:54.341Z,25.02
2022-09-02T00:09:23.682Z,21.05
2022-09-02T00:11:52.013Z,25.52
2022-09-02T00:14:25.824Z,25.13
2022-09-02T00:16:53.008Z,23.00
2022-09-02T00:19:25.432Z,22.50
2022-09-02T00:21:54.151Z,20.23
2022-09-02T00:24:22.394Z,26.55
2022-09-02T00:26:49.768Z,27.63
2022-09-02T00:29:17.261Z,29.33
2022-09-02T00:31:45.461Z,27.45
2022-09-02T00:34:12.598Z,26.55
2022-09-02T00:36:40.339Z,29.88
2022-09-02T00:39:08.862Z,24.67
2022-09-02T00:41:38.366Z,20.15
2022-09-02T00:44:11.027Z,23.77
2022-09-02T00:46:39.435Z,22.50
2022-09-02T00:49:13.156Z,22.88
2022-09-02T00:51:44.594Z,25.98
2022-09-02T00:54:14.416Z,21.58
2022-09-02T00:56:43.812Z,21.52
2022-09-02T00:59:15.917Z,25.05
2022-09-02T01:01:42.570Z,23.92
2022-09-02T01:04:12.675Z,20.85
2022-09-02T01:06:39.942Z,19.17
2022-09-02T01:09:12.912Z,19.98
2022-09-02T01:11:48.678Z,17.40
2022-09-02T01:14:16.834Z,13.68
2022-09-02T01:16:47.827Z,15.25
2022-09-02T01:19:28.506Z,14.23
2022-09-02T01:21:57.316Z,10.93
2022-09-02T01:24:28.527Z,9.68
2022-09-02T01:26:57.051Z,11.77
2022-09-02T01:29:25.069Z,11.15
2022-09-02T01:31:52.571Z,10.50
2022-09-02T01:34:19.538Z,12.98
2022-09-02T01:36:46.588Z,12.60
2022-09-02T01:39:13.931Z,12.93
2022-09-02T01:41:41.053Z,13.82
2022-09-02T01:44:08.131Z,13.60
2022-09-02T01:46:36.378Z,14.05
2022-09-02T01:49:03.834Z,12.02
2022-09-02T01:51:31.398Z,9.73
2022-09-02T01:53:57.997Z,11.07
2022-09-02T01:56:24.595Z,7.70
2022-09-02T01:58:51.498Z,9.27
2022-09-02T02:01:19.866Z,12.70
2022-09-02T02:03:46.615Z,16.15
2022-09-02T02:06:17.478Z,13.75
2022-09-02T02:08:45.124Z,15.38
2022-09-02T02:11:12.550Z,14.35
2022-09-02T02:13:39.139Z,19.38
2022-09-02T02:16:06.504Z,14.05
2022-09-02T02:18:33.192Z,15.80
2022-09-02T02:20:59.890Z,15.73
2022-09-02T02:23:26.824Z,15.25
2022-09-02T02:25:53.440Z,18.13
2022-09-02T02:28:20.979Z,17.65
2022-09-02T02:30:47.907Z,13.15
2022-09-02T02:33:14.921Z,15.43
2022-09-02T02:35:42.347Z,17.13
2022-09-02T02:38:10.273Z,19.05
2022-09-02T02:43:07.547Z,18.98
2022-09-02T02:45:34.295Z,19.65
2022-09-02T02:48:00.970Z,19.65
2022-09-02T02:50:27.632Z,16.63
2022-09-02T02:52:54.964Z,17.92
2022-09-02T02:55:23.077Z,17.20
2022-09-02T02:57:50.800Z,21.10
2022-09-02T03:00:24.983Z,17.27
2022-09-02T03:02:59.152Z,21.67
2022-09-02T03:05:27.246Z,18.60
2022-09-02T03:07:54.469Z,18.45
2022-09-02T03:10:22.234Z,19.30
2022-09-02T03:12:49.221Z,15.23
2022-09-02T03:15:17.857Z,15.60
2022-09-02T03:17:45.746Z,14.35
2022-09-02T03:20:12.619Z,13.80
2022-09-02T03:22:40.237Z,17.33
2022-09-02T03:25:09.088Z,14.93
2022-09-02T03:27:38.368Z,14.65
2022-09-02T03:30:07.868Z,16.63
2022-09-02T03:32:34.550Z,15.80
2022-09-02T03:35:03.313Z,15.35
2022-09-02T03:37:30.102Z,14.27
2022-09-02T03:39:56.752Z,15.95
2022-09-02T03:42:23.390Z,16.58
2022-09-02T03:44:50.047Z,16.67
2022-09-02T03:47:17.785Z,16.67
2022-09-02T03:49:47.499Z,17.10
2022-09-02T03:52:14.189Z,18.95
2022-09-02T03:54:40.796Z,15.55
2022-09-02T03:57:07.389Z,18.67
2022-09-02T03:59:34.061Z,17.20
2022-09-02T04:02:03.293Z,18.95
2022-09-02T04:04:30.540Z,15.38
2022-09-02T04:06:58.275Z,15.02
2022-09-02T04:09:25.079Z,16.40
2022-09-02T04:11:51.740Z,15.73
2022-09-02T04:14:18.449Z,14.95
2022-09-02T04:16:45.069Z,15.30
2022-09-02T04:19:11.777Z,16.55
2022-09-02T04:21:41.841Z,15.00
2022-09-02T04:24:10.957Z,19.85
2022-09-02T04:26:37.773Z,15.80
2022-09-02T04:29:11.617Z,15.23
2022-09-02T04:31:38.236Z,18.77
2022-09-02T04:34:04.960Z,14.57
2022-09-02T04:36:31.611Z,17.00
2022-09-02T04:38:58.416Z,18.27
2022-09-02T04:41:28.493Z,16.80
2022-09-02T04:43:57.343Z,16.80
2022-09-02T04:46:34.716Z,18.42
2022-09-02T04:49:03.059Z,33.63
2022-09-02T04:51:29.808Z,19.02
2022-09-02T04:53:56.465Z,15.13
2022-09-02T04:56:27.308Z,22.98
2022-09-02T04:58:54.767Z,16.77
2022-09-02T05:01:25.476Z,18.60
2022-09-02T05:03:54.093Z,18.23
2022-09-02T05:06:26.332Z,17.55
2022-09-02T05:08:54.575Z,18.13
2022-09-02T05:11:29.646Z,17.52
2022-09-02T05:13:58.782Z,17.20
2022-09-02T05:16:31.816Z,21.55
2022-09-02T05:18:59.442Z,18.77
2022-09-02T05:21:26.349Z,21.35
2022-09-02T05:23:54.476Z,19.40
2022-09-02T05:26:22.663Z,16.30
2022-09-02T05:28:50.608Z,19.60
2022-09-02T05:31:20.364Z,14.40
2022-09-02T05:33:47.701Z,16.17
2022-09-02T05:36:19.059Z,14.45
2022-09-02T05:38:46.375Z,21.95
2022-09-02T05:41:17.629Z,20.55
2022-09-02T05:43:44.887Z,16.08
2022-09-02T05:46:14.839Z,17.15
2022-09-02T05:49:00.530Z,16.02
2022-09-02T05:51:27.187Z,15.68
2022-09-02T05:53:55.919Z,15.20
2022-09-02T05:56:22.986Z,16.95
2022-09-02T05:58:50.227Z,14.30
2022-09-02T06:01:19.022Z,15.45
2022-09-02T06:03:46.164Z,13.60
2022-09-02T06:06:13.651Z,17.77
2022-09-02T06:08:40.359Z,16.58
2022-09-02T06:11:09.556Z,19.70
2022-09-02T06:13:40.206Z,17.70
2022-09-02T06:16:09.218Z,16.65
2022-09-02T06:18:36.297Z,17.95
2022-09-02T06:21:06.627Z,21.40
2022-09-02T06:23:39.162Z,14.27
2022-09-02T06:26:11.180Z,17.27
2022-09-02T06:28:38.924Z,16.15
2022-09-02T06:31:11.801Z,22.52
2022-09-02T06:33:38.803Z,21.63
2022-09-02T06:36:08.708Z,20.40
2022-09-02T06:38:45.207Z,22.73
2022-09-02T06:41:14.434Z,30.33
2022-09-02T06:43:42.851Z,22.70
2022-09-02T06:46:22.077Z,22.10
2022-09-02T06:48:50.314Z,22.13
2022-09-02T06:51:23.510Z,18.85
2022-09-02T06:53:50.734Z,24.42
2022-09-02T06:56:17.771Z,21.55
2022-09-02T06:58:46.016Z,21.73
2022-09-02T07:01:24.205Z,22.45
2022-09-02T07:04:26.558Z,20.05
2022-09-02T07:06:55.089Z,29.02
2022-09-02T07:09:31.019Z,22.45
2022-09-02T07:12:04.195Z,23.75
2022-09-02T07:14:36.382Z,27.90
2022-09-02T07:17:03.414Z,18.98
2022-09-02T07:19:30.183Z,21.35
2022-09-02T07:21:56.953Z,22.08
2022-09-02T07:24:24.050Z,27.80
2022-09-02T07:26:55.623Z,25.27
2022-09-02T07:29:23.116Z,30.75
2022-09-02T07:31:50.205Z,32.45
2022-09-02T07:34:18.391Z,32.20
2022-09-02T07:36:45.973Z,20.27
2022-09-02T07:39:14.189Z,15.80
2022-09-02T07:41:42.991Z,19.90
2022-09-02T07:44:10.049Z,19.52
2022-09-02T07:46:37.772Z,18.77
2022-09-02T07:49:09.280Z,16.65
2022-09-02T07:54:06.705Z,16.33
2022-09-02T07:56:33.602Z,16.75
2022-09-02T07:59:00.526Z,17.55
2022-09-02T08:01:27.772Z,16.13
2022-09-02T08:03:54.973Z,17.42
2022-09-02T08:06:34.849Z,25.35
2022-09-02T08:09:06.759Z,23.00
2022-09-02T08:11:36.744Z,26.67
2022-09-02T08:14:03.405Z,26.17
2022-09-02T08:16:30.349Z,26.42
2022-09-02T08:18:58.161Z,27.77
2022-09-02T08:21:25.765Z,24.20
2022-09-02T08:23:52.710Z,25.08
2022-09-02T08:26:19.618Z,30.48
2022-09-02T08:28:46.294Z,19.45
2022-09-02T08:31:12.955Z,23.85
2022-09-02T08:33:39.681Z,21.67
2022-09-02T08:36:09.162Z,17.45
2022-09-02T08:38:36.912Z,33.15
2022-09-02T08:41:13.902Z,20.40
2022-09-02T08:43:42.872Z,15.85
2022-09-02T08:46:15.250Z,13.23
2022-09-02T08:48:52.890Z,14.73
2022-09-02T08:51:35.962Z,17.08
2022-09-02T08:54:22.528Z,19.98
2022-09-02T08:56:51.617Z,15.90
2022-09-02T08:59:27.336Z,14.15
2022-09-02T09:02:09.306Z,16.58
2022-09-02T09:07:58.417Z,12.27
2022-09-02T09:10:34.288Z,15.75
2022-09-02T09:13:25.487Z,18.33
2022-09-02T09:16:10.923Z,15.80
2022-09-02T09:18:48.840Z,15.25
2022-09-02T09:21:16.316Z,16.70
2022-09-02T09:23:44.284Z,14.85
2022-09-02T09:26:20.264Z,14.63
2022-09-02T09:28:49.246Z,15.80
2022-09-02T09:31:21.411Z,14.82
2022-09-02T09:34:02.838Z,13.80
2022-09-02T09:36:41.651Z,15.90
2022-09-02T09:39:17.454Z,14.02
2022-09-02T09:41:45.787Z,16.60
2022-09-02T09:44:47.099Z,12.02
2022-09-02T09:47:25.923Z,16.35
2022-09-02T09:50:08.497Z,14.43
2022-09-02T09:52:35.572Z,14.57
2022-09-02T09:55:16.457Z,15.75
2022-09-02T09:57:51.100Z,13.48
2022-09-02T10:00:33.342Z,13.20
2022-09-02T10:03:06.494Z,25.53
2022-09-02T10:05:39.022Z,19.67
2022-09-02T10:08:21.178Z,19.13
2022-09-02T10:11:24.685Z,11.52
2022-09-02T10:13:54.108Z,11.73
2022-09-02T10:17:00.560Z,14.23
2022-09-02T10:19:56.774Z,16.75
2022-09-02T10:22:59.905Z,12.88
2022-09-02T10:25:30.050Z,15.55
2022-09-02T10:28:15.987Z,16.05
2022-09-02T10:31:01.280Z,14.95
2022-09-02T10:33:30.453Z,13.93
2022-09-02T10:36:12.825Z,11.68
2022-09-02T10:38:49.153Z,13.65
2022-09-02T10:44:32.847Z,14.23
2022-09-02T10:47:10.007Z,15.50
2022-09-02T10:49:54.341Z,14.13
2022-09-02T10:52:39.300Z,16.13
2022-09-02T10:55:39.817Z,14.38
2022-09-02T10:58:15.065Z,15.00
2022-09-02T11:00:45.603Z,17.48
2022-09-02T11:03:22.553Z,16.65
2022-09-02T11:06:08.024Z,10.68
2022-09-02T11:08:46.505Z,13.82
2022-09-02T11:11:22.507Z,12.25
2022-09-02T11:14:00.146Z,15.45
2022-09-02T11:16:48.085Z,12.02
2022-09-02T11:19:18.318Z,13.38
2022-09-02T11:22:12.271Z,12.85
2022-09-02T11:24:46.562Z,14.35
2022-09-02T11:27:41.734Z,16.20
2022-09-02T11:30:15.176Z,12.40
2022-09-02T11:32:47.423Z,14.82
2022-09-02T11:35:28.859Z,13.55
2022-09-02T11:38:05.189Z,10.02
2022-09-02T11:40:44.374Z,14.75
2022-09-02T11:43:35.910Z,21.48
2022-09-02T11:46:23.298Z,11.48
2022-09-02T11:49:11.783Z,13.48
2022-09-02T11:52:06.400Z,26.38
2022-09-02T11:54:40.145Z,23.13
2022-09-02T11:57:11.879Z,16.80
2022-09-02T11:59:51.584Z,15.82
2022-09-02T12:02:40.016Z,13.52
2022-09-02T12:05:30.020Z,13.70
2022-09-02T12:08:00.319Z,15.98
2022-09-02T12:10:39.877Z,13.77
2022-09-02T12:13:09.475Z,15.98
2022-09-02T12:15:36.766Z,12.68
2022-09-02T12:18:13.493Z,14.85
2022-09-02T12:20:41.523Z,12.07
2022-09-02T12:23:10.348Z,11.13
2022-09-02T12:25:49.470Z,11.60
2022-09-02T12:28:27.504Z,14.88
2022-09-02T12:31:08.488Z,12.55
2022-09-02T12:33:37.079Z,11.32
2022-09-02T12:36:05.665Z,14.02
2022-09-02T12:38:34.067Z,12.82
2022-09-02T12:41:07.988Z,15.40
2022-09-02T12:43:44.786Z,13.77
2022-09-02T12:46:28.706Z,15.43
2022-09-02T12:49:05.770Z,12.52
2022-09-02T12:51:52.525Z,13.55
2022-09-02T12:54:29.985Z,21.00
2022-09-02T12:56:56.632Z,20.98
2022-09-02T12:59:42.030Z,16.13
2022-09-02T13:02:46.882Z,15.77
2022-09-02T13:05:32.059Z,14.35
2022-09-02T13:08:17.737Z,15.48
2022-09-02T13:11:05.799Z,14.65
2022-09-02T13:13:44.472Z,15.25
2022-09-02T13:16:22.549Z,15.00
2022-09-02T13:19:33.717Z,15.10
2022-09-02T13:22:09.346Z,17.10
2022-09-02T13:25:15.365Z,19.05
2022-09-02T13:28:06.522Z,15.23
2022-09-02T13:30:57.580Z,18.42
2022-09-02T13:33:26.791Z,21.35
2022-09-02T13:36:01.538Z,17.15
2022-09-02T13:38:30.301Z,20.08
2022-09-02T13:40:57.154Z,18.52
2022-09-02T13:43:27.104Z,21.67
2022-09-02T13:45:59.571Z,26.02
2022-09-02T13:48:29.247Z,22.63
2022-09-02T13:51:02.160Z,25.65
2022-09-02T13:53:54.058Z,29.45
2022-09-02T13:56:31.312Z,39.28
2022-09-02T13:58:57.938Z,39.13
2022-09-02T14:01:38.319Z,41.63
2022-09-02T14:04:16.541Z,35.10
2022-09-02T14:06:47.524Z,41.35
2022-09-02T14:09:26.329Z,37.45
2022-09-02T14:11:54.597Z,43.45
2022-09-02T14:14:24.259Z,44.28
2022-09-02T14:16:51.369Z,47.42
2022-09-02T14:19:17.948Z,61.97
2022-09-02T14:21:51.428Z,62.15
2022-09-02T14:24:24.374Z,49.95
2022-09-02T14:26:54.775Z,50.45
2022-09-02T14:29:22.417Z,42.72
2022-09-02T14:32:06.072Z,41.00
2022-09-02T14:34:33.536Z,45.35
2022-09-02T14:37:00.386Z,42.97
2022-09-02T14:39:27.471Z,41.55
2022-09-02T14:41:56.260Z,48.45
2022-09-02T14:44:32.578Z,47.28
2022-09-02T14:47:02.050Z,46.00
2022-09-02T14:49:31.284Z,57.65
2022-09-02T14:52:00.433Z,48.65
2022-09-02T14:54:40.892Z,43.33
2022-09-02T14:57:22.216Z,40.28
2022-09-02T14:59:50.924Z,37.28
2022-09-02T15:02:24.896Z,42.25
2022-09-02T15:04:51.581Z,43.47
2022-09-02T15:07:18.912Z,67.15
2022-09-02T15:09:46.117Z,54.67
2022-09-02T15:12:14.090Z,43.08
2022-09-02T15:14:47.019Z,30.63
2022-09-02T15:17:15.808Z,29.15
2022-09-02T15:19:42.508Z,28.77
2022-09-02T15:22:09.169Z,30.20
2022-09-02T15:24:35.777Z,25.23
2022-09-02T15:27:02.516Z,22.48
2022-09-02T15:29:29.243Z,23.73
2022-09-02T15:31:55.858Z,22.77
2022-09-02T15:34:26.387Z,29.80
2022-09-02T15:36:55.294Z,24.05
2022-09-02T15:39:22.982Z,28.75
2022-09-02T15:41:50.339Z,29.63
2022-09-02T15:44:18.007Z,27.23
2022-09-02T15:46:45.552Z,27.15
2022-09-02T15:49:15.843Z,23.60
2022-09-02T15:51:46.909Z,22.80
2022-09-02T15:54:16.519Z,24.17
2022-09-02T15:56:45.561Z,22.60
2022-09-02T15:59:15.234Z,16.13
2022-09-02T16:01:44.665Z,27.08
2022-09-02T16:04:12.697Z,18.05
2022-09-02T16:06:41.952Z,13.88
2022-09-02T16:09:10.441Z,15.05
2022-09-02T16:11:38.808Z,14.15
2022-09-02T16:14:06.023Z,18.02
2022-09-02T16:16:33.567Z,20.95
2022-09-02T16:19:00.338Z,16.63
2022-09-02T16:21:27.019Z,19.67
2022-09-02T16:23:53.839Z,12.55
2022-09-02T16:26:28.719Z,16.48
2022-09-02T16:29:00.908Z,14.10
2022-09-02T16:31:29.785Z,13.88
2022-09-02T16:34:02.176Z,11.68
2022-09-02T16:36:33.470Z,10.07
2022-09-02T16:39:01.180Z,10.77
2022-09-02T16:41:35.495Z,11.40
2022-09-02T16:44:05.645Z,8.90
2022-09-02T16:46:32.765Z,10.63
2022-09-02T16:48:59.481Z,13.70
2022-09-02T16:51:27.906Z,9.10
2022-09-02T16:53:59.298Z,10.43
2022-09-02T16:56:26.296Z,9.90
2022-09-02T16:58:53.644Z,10.70
2022-09-02T17:01:23.150Z,12.13
2022-09-02T17:03:50.663Z,11.52
2022-09-02T17:06:18.426Z,14.85
2022-09-02T17:08:45.157Z,13.80
2022-09-02T17:11:37.608Z,14.55
2022-09-02T17:14:07.344Z,14.38
2022-09-02T17:16:39.134Z,15.98
2022-09-02T17:19:07.018Z,17.83
2022-09-02T17:21:37.316Z,20.13
2022-09-02T17:24:06.929Z,15.00
2022-09-02T17:26:36.559Z,17.80
2022-09-02T17:29:21.418Z,16.75
2022-09-02T17:31:58.175Z,16.85
2022-09-02T17:34:26.020Z,17.77
2022-09-02T17:36:53.396Z,18.15
2022-09-02T17:39:20.665Z,16.15
2022-09-02T17:41:57.798Z,19.98
2022-09-02T17:44:35.982Z,21.33
2022-09-02T17:47:05.967Z,19.48
2022-09-02T17:49:37.557Z,21.02
2022-09-02T17:52:07.392Z,20.42
2022-09-02T17:54:38.830Z,21.05
2022-09-02T17:57:33.472Z,21.20
2022-09-02T18:00:18.971Z,19.42
2022-09-02T18:03:04.309Z,20.45
2022-09-02T18:05:42.776Z,21.48
2022-09-02T18:08:54.336Z,20.40
2022-09-02T18:11:22.622Z,22.75
2022-09-02T18:14:01.428Z,19.20
2022-09-02T18:17:04.243Z,23.13
2022-09-02T18:19:45.814Z,19.08
2022-09-02T18:22:24.712Z,23.60
2022-09-02T18:25:24.007Z,20.23
2022-09-02T18:28:31.722Z,15.13
2022-09-02T18:31:22.917Z,15.90
2022-09-02T18:33:54.960Z,21.77
2022-09-02T18:39:27.254Z,15.43
2022-09-02T18:42:15.504Z,17.23
2022-09-02T18:45:06.690Z,18.38
2022-09-02T18:47:58.196Z,15.55
2022-09-02T18:50:52.176Z,16.43
2022-09-02T18:53:22.980Z,15.65
2022-09-02T18:55:52.194Z,16.25
2022-09-02T18:58:36.572Z,18.58
2022-09-02T19:01:29.907Z,18.08
2022-09-02T19:03:59.717Z,16.60
2022-09-02T19:06:34.285Z,17.75
2022-09-02T19:09:11.878Z,15.50
2022-09-02T19:11:39.792Z,19.75
2022-09-02T19:14:29.929Z,17.92
2022-09-02T19:16:58.350Z,19.05
2022-09-02T19:19:27.479Z,16.67
2022-09-02T19:22:15.846Z,17.20
2022-09-02T19:24:44.991Z,16.80
2022-09-02T19:27:21.411Z,20.02
2022-09-02T19:29:52.487Z,16.13
2022-09-02T19:32:25.940Z,21.55
2022-09-02T19:34:52.889Z,16.10
2022-09-02T19:37:20.233Z,20.25
2022-09-02T19:39:51.260Z,20.25
2022-09-02T19:42:20.779Z,16.57
2022-09-02T19:44:51.104Z,18.00
2022-09-02T19:50:06.213Z,21.38
2022-09-02T19:52:39.283Z,16.83
2022-09-02T19:55:06.597Z,19.15
2022-09-02T19:57:33.268Z,19.88
2022-09-02T19:59:59.971Z,15.77
2022-09-02T20:02:26.799Z,20.73
2022-09-02T20:04:53.388Z,21.98
2022-09-02T20:07:20.107Z,17.50
2022-09-02T20:09:46.853Z,17.27
2022-09-02T20:12:14.408Z,17.65
2022-09-02T20:14:41.013Z,18.85
2022-09-02T20:17:13.259Z,17.02
2022-09-02T20:19:42.234Z,17.65
2022-09-02T20:22:14.135Z,21.92
2022-09-02T20:24:41.687Z,16.58
2022-09-02T20:27:47.352Z,21.15
2022-09-02T20:30:17.650Z,16.95
2022-09-02T20:33:00.428Z,21.13
2022-09-02T20:36:01.132Z,21.00
2022-09-02T20:38:49.052Z,17.15
2022-09-02T20:41:46.656Z,17.30
2022-09-02T20:44:28.595Z,17.55
2022-09-02T20:47:07.581Z,13.90
2022-09-02T20:49:43.250Z,18.20
2022-09-02T20:52:21.873Z,19.33
2022-09-02T20:54:59.737Z,18.48
2022-09-02T20:57:50.917Z,18.38
2022-09-02T21:00:20.579Z,18.15
2022-09-02T21:03:11.030Z,15.63
2022-09-02T21:05:43.957Z,15.18
2022-09-02T21:08:24.763Z,18.88
2022-09-02T21:11:00.951Z,12.95
2022-09-02T21:13:42.963Z,14.98
2022-09-02T21:16:14.273Z,16.77
2022-09-02T21:19:19.008Z,14.98
2022-09-02T21:21:53.926Z,15.88
2022-09-02T21:24:28.459Z,17.38
2022-09-02T21:27:15.999Z,17.92
2022-09-02T21:29:52.551Z,14.32
2022-09-02T21:32:43.735Z,12.65
2022-09-02T21:35:21.427Z,12.35
2022-09-02T21:37:53.495Z,14.75
2022-09-02T21:43:07.468Z,14.40
2022-09-02T21:45:41.923Z,15.15
2022-09-02T21:48:46.656Z,15.05
2022-09-02T21:51:22.084Z,13.85
2022-09-02T21:54:13.391Z,10.20
2022-09-02T21:56:58.957Z,18.60
2022-09-02T21:59:50.341Z,9.25
2022-09-02T22:02:29.847Z,16.92
2022-09-02T22:05:18.438Z,14.40
2022-09-02T22:07:45.058Z,13.25
2022-09-02T22:10:36.332Z,11.48
2022-09-02T22:13:04.309Z,14.38
2022-09-02T22:15:34.643Z,15.10
2022-09-02T22:18:37.669Z,11.60
2022-09-02T22:21:26.681Z,16.33
2022-09-02T22:23:54.519Z,12.80
2022-09-02T22:26:34.740Z,13.02
2022-09-02T22:29:05.807Z,14.02
2022-09-02T22:31:35.892Z,16.15
2022-09-02T22:34:05.670Z,12.85
2022-09-02T22:36:56.274Z,12.93
2022-09-02T22:39:49.371Z,13.13
2022-09-02T22:42:36.858Z,14.45
2022-09-02T22:45:40.425Z,15.25
2022-09-02T22:48:36.974Z,14.00
2022-09-02T22:51:32.384Z,14.32
2022-09-02T22:53:58.958Z,12.95
2022-09-02T22:56:39.389Z,13.65
2022-09-02T22:59:48.091Z,10.38
2022-09-02T23:02:31.369Z,11.60
2022-09-02T23:05:49.444Z,12.80
2022-09-02T23:08:21.841Z,11.30
2022-09-02T23:10:58.995Z,11.60
2022-09-02T23:13:46.053Z,13.35
2022-09-02T23:16:19.163Z,11.55
2022-09-02T23:18:52.918Z,13.05
2022-09-02T23:21:37.646Z,16.67
2022-09-02T23:24:33.009Z,11.75
2022-09-02T23:27:09.376Z,12.38
2022-09-02T23:29:37.745Z,12.73
2022-09-02T23:32:25.980Z,15.13
2022-09-02T23:34:58.571Z,14.05
2022-09-02T23:37:47.860Z,16.90
2022-09-02T23:40:28.275Z,12.82
2022-09-02T23:42:58.061Z,17.42
2022-09-02T23:45:35.636Z,12.50
2022-09-02T23:48:33.342Z,11.93
2022-09-02T23:51:13.851Z,12.07
2022-09-02T23:54:04.761Z,13.75
2022-09-02T23:57:08.826Z,15.68
2022-09-02T23:59:41.141Z,10.55
